Time;durP1;ratioP1;P1;durP2;ratioP2;P2;SDS_P1;SDS_P2;PMS_P1;PMS_P2;Temp;Humidity;BMP_temperature;BMP_pressure;BME280_temperature;BME280_humidity;BME280_pressure;Samples;Min_cycle;Max_cycle;Signal;HPM_P1;HPM_P2
2023/03/13 04:59:53;;;;;;;1.25;1.10;;;7.10;99.90;;;;;;5039656;28;20258;-79
2023/03/13 05:02:20;;;;;;;1.10;1.10;;;7.20;99.90;;;;;;5039422;28;20201;-79
2023/03/13 05:04:47;;;;;;;1.00;1.00;;;7.20;99.90;;;;;;5039523;28;20201;-80
2023/03/13 05:07:13;;;;;;;1.08;1.08;;;7.30;99.90;;;;;;5045488;28;20251;-79
2023/03/13 05:09:40;;;;;;;2.25;1.20;;;7.30;99.90;;;;;;5041181;28;20205;-77
2023/03/13 05:12:07;;;;;;;2.75;1.10;;;7.40;99.90;;;;;;5035327;28;20208;-77
2023/03/13 05:14:34;;;;;;;5.70;2.53;;;7.40;99.90;;;;;;5035447;28;20197;-77
2023/03/13 05:17:02;;;;;;;3.60;1.52;;;7.40;99.90;;;;;;5035145;28;20217;-75
2023/03/13 05:19:29;;;;;;;2.40;1.42;;;7.50;99.90;;;;;;5035519;28;20244;-76
2023/03/13 05:21:55;;;;;;;2.88;1.67;;;7.60;99.90;;;;;;5035388;28;20694;-75
2023/03/13 05:24:22;;;;;;;3.45;1.50;;;7.60;99.90;;;;;;5035470;28;20212;-77
2023/03/13 05:26:49;;;;;;;2.10;1.90;;;7.70;99.90;;;;;;5035488;28;20565;-75
2023/03/13 05:29:16;;;;;;;2.03;1.55;;;7.80;99.90;;;;;;5034674;28;20561;-75
2023/03/13 05:31:42;;;;;;;2.60;1.60;;;7.80;99.90;;;;;;5038778;28;20209;-76
2023/03/13 05:34:10;;;;;;;2.63;1.95;;;7.90;99.90;;;;;;5038902;28;20204;-76
2023/03/13 05:36:37;;;;;;;3.10;1.75;;;7.90;99.90;;;;;;5039013;28;20228;-75
2023/03/13 05:39:04;;;;;;;0.93;0.93;;;8.00;99.90;;;;;;5038167;28;20223;-74
2023/03/13 05:41:30;;;;;;;1.33;1.20;;;8.00;99.90;;;;;;5038489;28;20197;-77
2023/03/13 05:43:57;;;;;;;1.20;1.00;;;8.10;99.90;;;;;;5039209;28;20209;-79
2023/03/13 05:46:24;;;;;;;1.33;0.80;;;8.10;99.90;;;;;;5039749;28;20232;-75
2023/03/13 05:48:51;;;;;;;2.00;0.98;;;8.20;99.90;;;;;;5037515;28;20673;-71
2023/03/13 05:51:19;;;;;;;0.60;0.60;;;8.30;99.90;;;;;;5037429;28;20668;-75
2023/03/13 05:53:46;;;;;;;0.60;0.60;;;8.40;99.90;;;;;;5038957;28;20209;-80
2023/03/13 05:56:13;;;;;;;0.80;0.80;;;8.50;99.90;;;;;;5039054;28;20208;-75
2023/03/13 05:58:39;;;;;;;0.60;0.60;;;8.60;99.90;;;;;;5037200;28;20224;-75
2023/03/13 06:01:07;;;;;;;0.70;0.70;;;8.70;99.90;;;;;;5037330;28;20205;-74
2023/03/13 06:03:34;;;;;;;1.15;0.68;;;8.70;99.90;;;;;;5037876;28;20204;-74
2023/03/13 06:06:01;;;;;;;0.63;0.63;;;8.80;99.90;;;;;;5037704;28;20201;-76
2023/03/13 06:08:31;;;;;;;0.65;0.65;;;8.80;99.90;;;;;;5037144;28;20225;-75
2023/03/13 06:10:59;;;;;;;0.43;0.43;;;8.80;99.90;;;;;;5037220;28;20270;-75
2023/03/13 11:27:02;;;;;;;0.40;0.40;;;17.00;85.40;;;;;;5744919;23;20222;-77
2023/03/13 11:29:37;;;;;;;0.73;0.60;;;16.70;87.30;;;;;;4998080;28;20213;-77
2023/03/13 11:32:17;;;;;;;0.47;0.47;;;16.90;90.40;;;;;;4997590;28;20190;-76
2023/03/13 11:34:50;;;;;;;2.80;0.52;;;16.90;87.80;;;;;;4996004;28;20193;-76
2023/03/13 11:37:19;;;;;;;0.40;0.40;;;16.90;91.30;;;;;;4995951;28;20230;-76
2023/03/13 11:39:57;;;;;;;0.50;0.50;;;16.70;89.90;;;;;;5050896;23;20313;-73
2023/03/13 11:42:53;;;;;;;1.48;0.50;;;16.70;94.00;;;;;;4996551;28;20194;-70
2023/03/13 11:45:45;;;;;;;0.40;0.40;;;16.70;90.50;;;;;;4995913;28;20193;-70
2023/03/13 11:48:22;;;;;;;0.50;0.50;;;16.60;93.20;;;;;;4995706;28;20233;-68
2023/03/13 11:50:54;;;;;;;0.60;0.60;;;16.60;95.60;;;;;;4976374;28;20195;-69
2023/03/13 11:53:42;;;;;;;0.60;0.57;;;16.60;96.40;;;;;;4976262;28;20278;-70
2023/03/13 11:56:16;;;;;;;1.08;0.73;;;16.60;95.00;;;;;;4975905;28;20188;-71
2023/03/13 11:59:05;;;;;;;1.90;0.50;;;16.50;96.50;;;;;;4975921;28;20238;-71
2023/03/13 12:01:37;;;;;;;0.70;0.55;;;16.50;97.30;;;;;;4976211;28;20191;-71
2023/03/13 12:04:12;;;;;;;0.52;0.40;;;16.60;95.50;;;;;;4975812;28;20199;-71
2023/03/13 12:06:43;;;;;;;0.47;0.47;;;16.60;96.70;;;;;;4975835;28;20187;-71
2023/03/13 12:09:15;;;;;;;0.47;0.47;;;16.70;98.50;;;;;;4975636;28;20252;-71
2023/03/13 12:11:49;;;;;;;0.57;0.30;;;16.80;96.30;;;;;;4975780;28;20191;-71
2023/03/13 12:14:22;;;;;;;0.88;0.50;;;16.90;93.30;;;;;;4976296;28;20191;-70
2023/03/13 12:16:54;;;;;;;0.47;0.47;;;16.90;92.90;;;;;;4976166;28;20198;-71
2023/03/13 12:19:27;;;;;;;0.47;0.47;;;17.00;90.80;;;;;;4975000;28;20694;-71
2023/03/13 12:21:57;;;;;;;0.50;0.50;;;17.00;91.40;;;;;;4975709;28;20199;-71
2023/03/13 12:24:30;;;;;;;1.15;0.52;;;17.10;90.90;;;;;;4975460;28;20282;-71
2023/03/13 12:27:01;;;;;;;0.43;0.43;;;17.10;89.70;;;;;;4975602;28;20194;-71
2023/03/13 12:29:41;;;;;;;0.95;0.70;;;17.00;88.90;;;;;;4975410;28;20254;-70
2023/03/13 12:32:14;;;;;;;1.50;0.88;;;16.90;89.00;;;;;;4975497;28;20194;-70
2023/03/13 12:34:51;;;;;;;0.30;0.30;;;16.90;90.30;;;;;;4975384;28;20191;-70
2023/03/13 12:37:28;;;;;;;0.50;0.50;;;16.90;91.30;;;;;;4975321;28;20191;-70
2023/03/13 12:40:01;;;;;;;0.50;0.50;;;16.90;90.60;;;;;;4974247;28;20230;-70
2023/03/13 12:42:43;;;;;;;0.47;0.47;;;17.00;92.50;;;;;;4975280;28;20198;-70
2023/03/13 12:45:17;;;;;;;0.45;0.45;;;17.00;90.90;;;;;;4974980;28;20634;-69
2023/03/13 12:48:08;;;;;;;0.65;0.55;;;17.10;90.40;;;;;;4975251;28;20229;-70
2023/03/13 12:50:43;;;;;;;0.65;0.65;;;17.10;91.80;;;;;;4974753;28;20594;-70
2023/03/13 12:53:34;;;;;;;2.20;0.55;;;17.30;88.00;;;;;;4975081;28;20183;-70
2023/03/13 12:56:34;;;;;;;0.65;0.65;;;17.30;84.70;;;;;;4974968;28;20192;-70
2023/03/13 12:59:05;;;;;;;0.73;0.60;;;17.40;83.00;;;;;;4975250;28;20222;-72
2023/03/13 13:01:36;;;;;;;0.70;0.70;;;17.50;82.30;;;;;;4974637;28;20671;-71
2023/03/13 13:04:06;;;;;;;0.52;0.52;;;17.50;81.30;;;;;;4974891;28;20199;-71
2023/03/13 13:06:53;;;;;;;0.50;0.47;;;17.50;79.40;;;;;;4974831;28;20187;-70
2023/03/13 13:09:23;;;;;;;1.20;0.90;;;17.40;82.40;;;;;;4974820;28;20250;-70
2023/03/13 13:11:52;;;;;;;0.68;0.68;;;17.30;82.30;;;;;;4975131;28;20203;-70
2023/03/13 13:14:56;;;;;;;0.98;0.50;;;17.30;84.40;;;;;;4974765;28;20207;-70
2023/03/13 13:17:45;;;;;;;1.05;0.70;;;17.20;88.60;;;;;;4974770;28;20191;-70
2023/03/13 13:20:34;;;;;;;0.45;0.43;;;17.20;88.10;;;;;;4974532;28;20226;-70
2023/03/13 13:23:22;;;;;;;0.30;0.30;;;17.10;89.10;;;;;;4974576;28;20183;-70
2023/03/13 13:25:50;;;;;;;0.55;0.55;;;17.20;90.00;;;;;;4974627;28;20191;-70
2023/03/13 13:28:26;;;;;;;0.30;0.30;;;17.30;90.10;;;;;;4974584;28;20210;-70
2023/03/13 13:30:55;;;;;;;0.40;0.40;;;17.30;90.20;;;;;;4974631;28;20194;-70
2023/03/13 13:33:39;;;;;;;0.40;0.40;;;17.30;86.90;;;;;;4975390;28;20246;-71
2023/03/13 13:36:39;;;;;;;0.50;0.50;;;17.40;83.60;;;;;;4974761;28;20191;-70
2023/03/13 13:39:29;;;;;;;1.35;0.55;;;17.50;82.80;;;;;;4974235;28;20712;-72
2023/03/13 13:41:56;;;;;;;0.50;0.50;;;17.60;78.30;;;;;;4974895;28;20239;-71
2023/03/13 13:44:29;;;;;;;0.50;0.50;;;17.60;82.60;;;;;;4974748;28;20213;-71
2023/03/13 13:47:00;;;;;;;0.40;0.40;;;17.60;78.60;;;;;;4974283;28;20566;-71
2023/03/13 13:49:53;;;;;;;0.50;0.50;;;17.70;77.10;;;;;;4974759;28;20223;-73
2023/03/13 13:52:33;;;;;;;0.50;0.50;;;17.70;76.80;;;;;;4978431;28;20198;-75
2023/03/13 13:55:00;;;;;;;0.47;0.30;;;17.70;76.40;;;;;;4984495;28;20194;-76
2023/03/13 13:57:29;;;;;;;0.35;0.35;;;17.80;72.90;;;;;;4987582;28;20207;-73
2023/03/13 14:00:04;;;;;;;0.40;0.40;;;17.90;73.70;;;;;;4988019;28;20218;-74
2023/03/13 14:02:35;;;;;;;0.45;0.35;;;18.00;75.30;;;;;;4978865;28;20198;-74
2023/03/13 14:05:06;;;;;;;0.30;0.30;;;18.10;71.10;;;;;;4978238;28;20206;-77
2023/03/13 14:07:57;;;;;;;0.45;0.45;;;18.20;69.10;;;;;;4977889;28;20546;-77
2023/03/13 14:10:41;;;;;;;0.32;0.32;;;18.10;65.80;;;;;;4973549;28;20218;-77
2023/03/13 14:13:14;;;;;;;0.35;0.30;;;18.10;66.90;;;;;;4978115;28;20646;-76
2023/03/13 14:15:45;;;;;;;0.57;0.40;;;18.00;67.30;;;;;;4978084;28;20206;-77
2023/03/13 14:18:20;;;;;;;0.40;0.40;;;18.00;66.50;;;;;;4988097;28;20211;-76
2023/03/13 14:20:59;;;;;;;0.40;0.40;;;18.00;65.60;;;;;;4978320;28;20214;-76
2023/03/13 14:23:38;;;;;;;0.98;0.40;;;17.90;67.00;;;;;;4978329;28;20204;-76
2023/03/13 14:26:17;;;;;;;0.40;0.40;;;17.90;66.60;;;;;;4977605;28;20635;-76
2023/03/13 14:28:46;;;;;;;0.57;0.50;;;17.90;67.60;;;;;;4977573;28;20254;-75
2023/03/13 14:31:22;;;;;;;0.40;0.40;;;17.80;68.20;;;;;;4977831;28;20233;-76
2023/03/13 14:33:49;;;;;;;1.83;0.65;;;17.80;68.30;;;;;;4978040;28;20194;-76
2023/03/13 14:36:17;;;;;;;0.30;0.30;;;17.70;68.70;;;;;;4977630;28;20207;-76
2023/03/13 14:38:52;;;;;;;0.50;0.45;;;17.70;70.20;;;;;;4977301;28;20226;-76
2023/03/13 14:41:42;;;;;;;3.50;0.40;;;17.60;71.70;;;;;;4977603;28;20298;-76
2023/03/13 14:44:17;;;;;;;0.63;0.40;;;17.60;71.10;;;;;;4972458;28;20213;-76
2023/03/13 14:46:44;;;;;;;0.47;0.47;;;17.70;70.90;;;;;;4977611;28;20535;-76
2023/03/13 14:49:17;;;;;;;1.00;0.40;;;17.80;70.80;;;;;;4977245;28;20225;-77
2023/03/13 14:51:46;;;;;;;0.40;0.40;;;17.90;68.60;;;;;;4977331;28;20210;-76
2023/03/13 14:54:25;;;;;;;0.30;0.30;;;17.90;69.30;;;;;;4977416;28;20209;-76
2023/03/13 14:57:06;;;;;;;0.40;0.40;;;18.00;67.30;;;;;;4977264;28;20195;-75
2023/03/13 14:59:33;;;;;;;0.40;0.40;;;18.00;67.60;;;;;;4976984;28;20234;-76
2023/03/13 15:02:01;;;;;;;0.40;0.40;;;18.00;67.50;;;;;;4978268;28;20206;-75
2023/03/13 15:04:58;;;;;;;0.47;0.47;;;18.00;66.00;;;;;;4977911;28;20574;-75
2023/03/13 15:07:34;;;;;;;1.25;0.40;;;17.90;65.20;;;;;;4979001;28;20198;-75
2023/03/13 15:10:01;;;;;;;0.68;0.45;;;17.90;66.20;;;;;;4981122;28;20266;-76
2023/03/13 15:12:30;;;;;;;0.45;0.45;;;17.80;68.20;;;;;;4977957;28;20210;-75
2023/03/13 15:14:58;;;;;;;1.10;0.40;;;17.70;69.50;;;;;;4980032;28;20199;-75
2023/03/13 15:17:27;;;;;;;0.45;0.45;;;17.70;69.60;;;;;;4977278;28;20666;-76
2023/03/13 15:19:55;;;;;;;0.40;0.40;;;17.60;68.90;;;;;;4977467;28;20705;-76
2023/03/13 15:22:27;;;;;;;0.50;0.50;;;17.50;68.90;;;;;;4977051;28;20191;-76
2023/03/13 15:24:55;;;;;;;0.30;0.30;;;17.50;69.00;;;;;;4976796;28;20646;-76
2023/03/13 15:27:23;;;;;;;2.50;0.38;;;17.40;69.90;;;;;;4977950;28;20210;-77
2023/03/13 15:29:50;;;;;;;0.60;0.60;;;17.40;68.40;;;;;;4979137;28;20310;-77
2023/03/13 15:32:24;;;;;;;0.50;0.50;;;17.40;67.10;;;;;;4979348;28;20226;-77
2023/03/13 15:34:51;;;;;;;0.70;0.70;;;17.30;67.90;;;;;;4977478;28;20191;-76
2023/03/13 15:37:18;;;;;;;0.50;0.50;;;17.30;67.60;;;;;;4976752;28;20207;-77
2023/03/13 15:39:46;;;;;;;2.42;0.50;;;17.20;68.10;;;;;;4976133;28;20307;-77
2023/03/13 15:42:13;;;;;;;0.80;0.40;;;17.20;68.50;;;;;;4976488;28;20214;-77
2023/03/13 15:44:40;;;;;;;0.30;0.30;;;17.10;67.70;;;;;;4977020;28;20294;-75
2023/03/13 15:47:09;;;;;;;0.50;0.50;;;17.10;68.40;;;;;;4976429;28;20206;-75
2023/03/13 15:49:35;;;;;;;0.40;0.40;;;17.10;68.10;;;;;;4976551;28;20277;-75
2023/03/13 15:52:02;;;;;;;0.40;0.40;;;17.00;67.60;;;;;;4976208;28;20230;-75
2023/03/13 15:54:29;;;;;;;0.50;0.50;;;16.90;67.50;;;;;;4976139;28;20203;-76
2023/03/13 15:56:57;;;;;;;0.80;0.40;;;16.90;68.10;;;;;;4976082;28;20565;-76
2023/03/13 15:59:24;;;;;;;0.40;0.40;;;16.70;68.50;;;;;;4976381;28;20226;-77
2023/03/13 16:01:50;;;;;;;0.50;0.50;;;16.70;69.50;;;;;;4975741;28;20206;-77
2023/03/13 16:04:17;;;;;;;0.50;0.50;;;16.60;70.00;;;;;;4975955;28;20198;-76
2023/03/13 16:06:44;;;;;;;0.85;0.60;;;16.60;71.50;;;;;;4976111;28;20203;-77
2023/03/13 16:09:11;;;;;;;0.47;0.47;;;16.60;72.00;;;;;;4976088;28;20605;-76
2023/03/13 16:11:38;;;;;;;1.45;0.40;;;16.50;72.00;;;;;;4975872;28;20207;-77
2023/03/13 16:14:06;;;;;;;0.40;0.40;;;16.50;71.70;;;;;;4975538;28;20203;-76
2023/03/13 16:16:35;;;;;;;0.40;0.40;;;16.50;72.80;;;;;;4975440;28;20203;-77
2023/03/13 16:19:03;;;;;;;0.40;0.40;;;16.40;71.70;;;;;;4975753;28;20234;-77
2023/03/13 16:21:33;;;;;;;0.30;0.30;;;16.40;73.00;;;;;;4975639;28;20231;-77
2023/03/13 16:24:00;;;;;;;2.47;0.50;;;16.40;73.10;;;;;;4975735;28;20187;-77
2023/03/13 16:26:28;;;;;;;0.30;0.30;;;16.40;73.00;;;;;;4975944;28;20204;-77
2023/03/13 16:28:56;;;;;;;0.40;0.40;;;16.30;73.20;;;;;;4975958;28;20234;-78
2023/03/13 16:31:27;;;;;;;0.40;0.40;;;16.20;73.40;;;;;;4975525;28;20199;-75
2023/03/13 16:33:54;;;;;;;0.85;0.43;;;16.20;74.30;;;;;;4975830;28;20214;-77
2023/03/13 16:36:23;;;;;;;0.63;0.40;;;16.10;75.30;;;;;;4977844;28;20302;-78
2023/03/13 16:38:51;;;;;;;3.45;0.55;;;16.10;77.10;;;;;;4976673;28;20231;-77
2023/03/13 16:41:20;;;;;;;0.43;0.43;;;15.90;79.00;;;;;;4979640;28;20233;-77
2023/03/13 16:43:47;;;;;;;0.30;0.30;;;15.90;79.70;;;;;;4978860;28;20207;-78
2023/03/13 16:46:16;;;;;;;0.60;0.60;;;15.80;82.60;;;;;;4976941;28;20207;-78
2023/03/13 16:48:45;;;;;;;0.98;0.70;;;15.70;82.30;;;;;;4976731;28;20238;-78
2023/03/13 16:51:16;;;;;;;0.82;0.57;;;15.70;83.00;;;;;;4983298;28;20258;-78
2023/03/13 16:53:44;;;;;;;0.73;0.73;;;15.60;86.10;;;;;;4978446;28;20190;-78
2023/03/13 16:56:25;;;;;;;0.80;0.80;;;15.60;90.30;;;;;;4977329;28;20589;-77
2023/03/13 16:58:52;;;;;;;0.80;0.80;;;15.40;92.00;;;;;;4974588;28;20743;-76
2023/03/13 17:01:19;;;;;;;0.90;0.90;;;15.30;94.40;;;;;;4975077;28;20320;-77
2023/03/13 17:03:47;;;;;;;0.77;0.77;;;15.10;97.30;;;;;;4975025;28;20671;-75
2023/03/13 17:06:16;;;;;;;0.82;0.82;;;15.00;99.90;;;;;;4975152;28;20207;-76
2023/03/13 17:08:43;;;;;;;0.85;0.85;;;14.80;99.90;;;;;;4975029;28;20227;-76
2023/03/13 17:11:14;;;;;;;0.70;0.70;;;14.70;99.90;;;;;;4976912;28;20199;-76
2023/03/13 17:13:42;;;;;;;0.68;0.68;;;14.50;99.90;;;;;;4975203;28;20223;-76
2023/03/13 17:16:13;;;;;;;0.60;0.60;;;14.30;99.90;;;;;;4975646;28;20231;-77
2023/03/13 17:18:40;;;;;;;0.80;0.80;;;14.20;99.90;;;;;;4976504;28;20219;-78
2023/03/13 17:21:12;;;;;;;0.80;0.80;;;14.00;99.90;;;;;;4975848;28;20223;-77
2023/03/13 17:23:39;;;;;;;0.70;0.70;;;13.80;99.90;;;;;;4976210;28;20206;-75
2023/03/13 17:26:16;;;;;;;0.57;0.57;;;13.70;99.90;;;;;;4974757;28;20729;-77
2023/03/13 17:28:44;;;;;;;0.88;0.88;;;13.50;99.90;;;;;;4975139;28;20230;-77
2023/03/13 17:31:11;;;;;;;0.90;0.90;;;13.30;99.90;;;;;;4975531;28;20210;-77
2023/03/13 17:33:39;;;;;;;1.65;0.90;;;13.20;99.90;;;;;;4975281;28;20261;-77
2023/03/13 17:36:14;;;;;;;0.88;0.88;;;13.00;99.90;;;;;;4975113;28;20259;-76
2023/03/13 17:38:41;;;;;;;0.80;0.80;;;12.90;99.90;;;;;;4974717;28;20609;-77
2023/03/13 17:41:10;;;;;;;1.08;0.70;;;12.70;99.90;;;;;;5007416;23;20230;-79
2023/03/13 17:43:37;;;;;;;0.70;0.70;;;12.60;99.90;;;;;;4998150;28;20277;-79
2023/03/13 17:46:13;;;;;;;0.57;0.57;;;12.50;99.90;;;;;;4998461;28;20203;-79
2023/03/13 17:48:39;;;;;;;0.90;0.90;;;12.40;99.90;;;;;;4997843;28;20197;-78
2023/03/13 17:51:08;;;;;;;0.90;0.90;;;12.30;99.90;;;;;;4999181;28;20234;-78
2023/03/13 17:53:36;;;;;;;1.10;1.10;;;12.20;99.90;;;;;;4997202;28;20573;-78
2023/03/13 17:56:03;;;;;;;1.45;1.45;;;12.20;99.90;;;;;;4997582;28;20191;-78
2023/03/13 17:58:30;;;;;;;1.80;1.70;;;12.10;99.90;;;;;;4998022;28;20214;-78
2023/03/13 18:00:57;;;;;;;1.95;1.60;;;12.00;99.90;;;;;;4994557;28;20231;-74
2023/03/13 18:03:23;;;;;;;1.38;1.38;;;11.90;99.90;;;;;;4994851;28;20203;-75
2023/03/13 18:05:50;;;;;;;2.47;1.20;;;11.90;99.90;;;;;;4994098;28;20678;-75
2023/03/13 18:08:17;;;;;;;1.02;1.02;;;11.80;99.90;;;;;;4994431;28;20179;-76
2023/03/13 18:10:46;;;;;;;0.90;0.90;;;11.70;99.90;;;;;;4994195;28;20581;-77
2023/03/13 18:13:13;;;;;;;0.85;0.85;;;11.60;99.90;;;;;;4998028;28;20218;-79
2023/03/13 18:15:40;;;;;;;0.63;0.63;;;11.50;99.90;;;;;;4997523;28;20613;-77
2023/03/13 18:18:06;;;;;;;0.50;0.50;;;11.40;99.90;;;;;;4994410;28;20689;-78
2023/03/13 18:20:33;;;;;;;0.68;0.68;;;11.30;99.90;;;;;;4994014;28;20234;-77
2023/03/13 18:23:00;;;;;;;0.60;0.60;;;11.20;99.90;;;;;;4994277;28;20210;-77
2023/03/13 18:25:27;;;;;;;0.50;0.50;;;11.10;99.90;;;;;;4996815;28;20202;-76
2023/03/13 18:27:55;;;;;;;0.60;0.60;;;11.10;99.90;;;;;;5005281;28;20206;-76
2023/03/13 18:30:24;;;;;;;1.95;0.70;;;11.00;99.90;;;;;;5007034;28;20210;-75
2023/03/13 18:32:50;;;;;;;1.23;0.63;;;11.00;99.90;;;;;;5005917;28;20211;-76
2023/03/13 18:35:17;;;;;;;0.52;0.52;;;10.90;99.90;;;;;;5008201;28;20217;-76
2023/03/13 18:37:46;;;;;;;0.47;0.47;;;10.80;99.90;;;;;;5003317;28;20202;-75
2023/03/13 18:40:17;;;;;;;0.65;0.65;;;10.80;99.90;;;;;;4998268;28;20206;-75
2023/03/13 18:42:44;;;;;;;0.57;0.50;;;10.80;99.90;;;;;;4998228;28;20206;-75
2023/03/13 18:45:16;;;;;;;0.73;0.70;;;10.80;99.90;;;;;;4998943;28;20203;-75
2023/03/13 18:47:43;;;;;;;0.65;0.65;;;10.80;99.90;;;;;;4999074;28;20190;-74
2023/03/13 18:50:22;;;;;;;0.75;0.75;;;10.70;99.90;;;;;;4999896;28;20230;-76
2023/03/13 18:52:49;;;;;;;0.60;0.60;;;10.70;99.90;;;;;;5001084;28;20187;-76
2023/03/13 18:55:16;;;;;;;0.60;0.60;;;10.70;99.90;;;;;;5002456;28;20209;-76
2023/03/13 18:57:43;;;;;;;0.70;0.70;;;10.70;99.90;;;;;;5002673;28;20649;-75
2023/03/13 19:00:18;;;;;;;0.95;0.90;;;10.60;99.90;;;;;;5004399;28;20209;-75
2023/03/13 19:02:45;;;;;;;0.70;0.70;;;10.60;99.90;;;;;;5012725;28;20203;-76
2023/03/13 19:05:12;;;;;;;0.80;0.80;;;10.60;99.90;;;;;;5011067;28;20203;-75
2023/03/13 19:07:40;;;;;;;0.60;0.60;;;10.50;99.90;;;;;;5011674;28;20293;-76
2023/03/13 19:10:19;;;;;;;1.17;0.50;;;10.50;99.90;;;;;;5005377;28;20543;-76
2023/03/13 19:12:47;;;;;;;0.80;0.80;;;11.20;99.90;;;;;;5003552;28;20621;-76
2023/03/13 19:15:14;;;;;;;0.77;0.77;;;10.50;99.90;;;;;;5003852;28;20207;-75
2023/03/13 19:17:43;;;;;;;0.70;0.70;;;10.50;99.90;;;;;;5001205;28;20207;-75
2023/03/13 19:20:14;;;;;;;0.60;0.60;;;10.40;99.90;;;;;;4999726;28;20225;-76
2023/03/13 19:22:41;;;;;;;0.40;0.40;;;10.40;99.90;;;;;;4998807;28;20198;-75
2023/03/13 19:25:09;;;;;;;0.60;0.60;;;10.40;99.90;;;;;;4997454;28;20285;-75
2023/03/13 19:27:38;;;;;;;0.40;0.40;;;10.40;99.90;;;;;;4996872;28;20230;-76
2023/03/13 19:30:11;;;;;;;0.60;0.60;;;10.40;99.90;;;;;;4996819;28;20207;-76
2023/03/13 19:32:38;;;;;;;0.60;0.60;;;10.40;99.90;;;;;;4996359;28;20226;-75
2023/03/13 19:35:07;;;;;;;0.60;0.60;;;10.40;99.90;;;;;;4996399;28;20725;-76
2023/03/13 19:37:33;;;;;;;0.40;0.40;;;10.40;99.90;;;;;;4995997;28;20199;-76
2023/03/13 19:40:00;;;;;;;0.95;0.60;;;10.40;99.90;;;;;;4996529;28;20203;-76
2023/03/13 19:42:27;;;;;;;0.50;0.50;;;10.40;99.90;;;;;;4995581;28;20234;-76
2023/03/13 19:44:54;;;;;;;0.60;0.60;;;10.40;99.90;;;;;;4995979;28;20280;-76
2023/03/13 19:47:20;;;;;;;0.93;0.43;;;10.50;99.90;;;;;;4995985;28;20253;-76
2023/03/13 19:49:48;;;;;;;0.70;0.70;;;10.40;99.90;;;;;;4995814;28;20206;-76
2023/03/13 19:52:17;;;;;;;0.50;0.50;;;10.50;99.90;;;;;;4995871;28;20254;-76
2023/03/13 19:54:44;;;;;;;1.20;0.40;;;10.50;99.90;;;;;;4995954;28;20234;-76
2023/03/13 19:57:11;;;;;;;0.60;0.40;;;10.60;99.90;;;;;;4995847;28;20202;-76
2023/03/13 19:59:38;;;;;;;0.45;0.45;;;10.70;99.90;;;;;;4995692;28;20203;-76
2023/03/13 20:02:07;;;;;;;0.60;0.60;;;10.70;99.90;;;;;;4995552;28;20222;-76
2023/03/13 20:04:34;;;;;;;0.60;0.60;;;10.80;99.90;;;;;;4995808;28;20356;-76
2023/03/13 20:07:02;;;;;;;3.50;1.65;;;10.80;99.90;;;;;;4995252;28;20606;-76
2023/03/13 20:09:30;;;;;;;1.92;0.90;;;10.90;99.90;;;;;;4995439;28;20209;-76
2023/03/13 20:11:57;;;;;;;0.73;0.63;;;11.10;99.90;;;;;;4995318;28;20709;-76
2023/03/13 20:14:23;;;;;;;0.80;0.80;;;11.30;99.90;;;;;;4996024;28;20210;-75
2023/03/13 20:16:50;;;;;;;1.05;0.60;;;11.40;99.90;;;;;;4995594;28;20206;-76
2023/03/13 20:19:17;;;;;;;0.50;0.50;;;11.40;99.90;;;;;;4995072;28;20674;-76
2023/03/13 20:21:45;;;;;;;0.60;0.60;;;11.40;99.90;;;;;;4995460;28;20238;-76
2023/03/13 20:24:12;;;;;;;0.50;0.50;;;11.30;99.90;;;;;;4995753;28;20214;-76
2023/03/13 20:26:40;;;;;;;0.60;0.60;;;11.10;99.90;;;;;;4995790;28;20287;-77
2023/03/13 20:29:07;;;;;;;0.57;0.57;;;10.90;99.90;;;;;;4995297;28;20206;-77
2023/03/13 20:31:33;;;;;;;0.60;0.60;;;10.80;99.90;;;;;;4995455;28;20219;-77
2023/03/13 20:34:00;;;;;;;0.50;0.50;;;10.60;99.90;;;;;;4995825;28;20570;-77
2023/03/13 20:36:27;;;;;;;0.50;0.50;;;10.60;99.90;;;;;;4996439;28;20206;-77
2023/03/13 20:38:54;;;;;;;2.45;0.50;;;10.50;99.90;;;;;;4996045;28;20202;-77
2023/03/13 20:41:24;;;;;;;0.50;0.50;;;10.40;99.90;;;;;;4995505;28;20234;-77
2023/03/13 20:43:52;;;;;;;0.75;0.63;;;10.40;99.90;;;;;;4995624;28;20198;-77
2023/03/13 20:46:19;;;;;;;0.90;0.90;;;10.30;99.90;;;;;;4995599;28;20203;-77
2023/03/13 20:48:46;;;;;;;0.52;0.52;;;10.20;99.90;;;;;;4994929;28;20198;-77
2023/03/13 20:51:13;;;;;;;0.52;0.52;;;10.10;99.90;;;;;;4995208;28;20598;-76
2023/03/13 20:53:41;;;;;;;0.68;0.52;;;10.00;99.90;;;;;;4995601;28;20214;-77
2023/03/13 20:56:10;;;;;;;2.70;0.77;;;9.90;99.90;;;;;;4997100;28;20687;-78
2023/03/13 20:58:38;;;;;;;0.60;0.60;;;9.60;99.90;;;;;;4997846;28;20210;-80
2023/03/13 21:01:07;;;;;;;0.75;0.60;;;9.40;99.90;;;;;;5009878;28;20223;-83
2023/03/13 21:03:35;;;;;;;0.98;0.60;;;9.20;99.90;;;;;;5018281;28;20175;-82
2023/03/13 21:06:01;;;;;;;2.20;0.85;;;9.10;99.90;;;;;;5013971;28;20252;-79
2023/03/13 21:08:28;;;;;;;0.38;0.38;;;8.90;99.90;;;;;;4999315;28;20210;-79
2023/03/13 21:10:55;;;;;;;0.43;0.40;;;8.80;99.90;;;;;;5000596;28;20223;-79
2023/03/13 21:13:21;;;;;;;0.40;0.40;;;8.70;99.90;;;;;;5015920;28;20266;-79
2023/03/13 21:15:48;;;;;;;0.50;0.50;;;8.50;99.90;;;;;;5016198;28;20203;-79
2023/03/13 21:18:16;;;;;;;0.40;0.40;;;8.40;99.90;;;;;;5009893;28;20209;-79
2023/03/13 21:20:43;;;;;;;1.02;0.40;;;8.30;99.90;;;;;;5002055;28;20234;-80
2023/03/13 21:23:10;;;;;;;0.40;0.40;;;8.30;99.90;;;;;;5001806;28;20219;-80
2023/03/13 21:25:36;;;;;;;0.90;0.90;;;8.20;99.90;;;;;;4999132;28;20199;-79
2023/03/13 21:28:03;;;;;;;0.57;0.57;;;8.20;99.90;;;;;;4998796;28;20198;-79
2023/03/13 21:30:30;;;;;;;0.60;0.60;;;8.20;99.90;;;;;;4994720;28;20281;-77
2023/03/13 21:32:56;;;;;;;0.40;0.40;;;8.20;99.90;;;;;;4998230;28;20299;-78
2023/03/13 21:35:26;;;;;;;0.50;0.50;;;8.10;99.90;;;;;;4997403;28;20617;-78
2023/03/13 21:37:52;;;;;;;0.40;0.40;;;8.10;99.90;;;;;;4998900;28;20209;-79
2023/03/13 21:40:19;;;;;;;0.40;0.40;;;8.10;99.90;;;;;;4998243;28;20214;-79
2023/03/13 21:42:46;;;;;;;0.52;0.52;;;8.10;99.90;;;;;;4997720;28;20230;-78
2023/03/13 21:45:13;;;;;;;0.93;0.47;;;8.00;99.90;;;;;;4997076;28;20209;-78
2023/03/13 21:47:39;;;;;;;0.40;0.40;;;8.00;99.90;;;;;;4997390;28;20205;-79
2023/03/13 21:50:08;;;;;;;0.52;0.50;;;8.00;99.90;;;;;;4996865;28;20202;-78
2023/03/13 21:52:37;;;;;;;0.77;0.43;;;8.00;99.90;;;;;;4996491;28;20277;-78
2023/03/13 21:55:06;;;;;;;0.40;0.40;;;8.00;99.90;;;;;;4996531;28;20697;-78
2023/03/13 21:57:33;;;;;;;0.30;0.30;;;8.00;99.90;;;;;;4997436;28;20242;-79
2023/03/13 21:59:59;;;;;;;0.30;0.30;;;8.00;99.90;;;;;;4997066;28;20203;-78
2023/03/13 22:02:26;;;;;;;0.40;0.40;;;8.10;99.90;;;;;;4996473;28;20227;-78
2023/03/13 22:04:53;;;;;;;0.60;0.60;;;8.10;99.90;;;;;;4997246;28;20215;-78
2023/03/13 22:07:21;;;;;;;0.73;0.73;;;8.10;99.90;;;;;;4997037;28;20207;-78
2023/03/13 22:09:49;;;;;;;0.40;0.40;;;8.10;99.90;;;;;;4997450;28;20207;-78
2023/03/13 22:12:16;;;;;;;0.30;0.30;;;8.10;99.90;;;;;;4997328;28;20628;-78
2023/03/13 22:14:43;;;;;;;0.55;0.50;;;8.10;99.90;;;;;;5000002;28;20302;-78
2023/03/13 22:17:15;;;;;;;1.10;0.45;;;8.10;99.90;;;;;;4999791;28;20221;-78
2023/03/13 22:19:42;;;;;;;0.40;0.40;;;8.10;99.90;;;;;;5009201;28;20221;-79
2023/03/13 22:22:09;;;;;;;0.35;0.35;;;8.10;99.90;;;;;;5018564;28;20241;-78
2023/03/13 22:24:36;;;;;;;0.40;0.40;;;8.10;99.90;;;;;;5016916;28;20203;-78
